sensor_id;sensor_type;location;lat;lon;timestamp;P1;durP1;ratioP1;P2;durP2;ratioP2
41635;SDS011;27623;51.966;4.602;2023-06-19T00:00:15;2.17;;;1.20;;
41635;SDS011;27623;51.966;4.602;2023-06-19T00:02:41;2.88;;;1.25;;
41635;SDS011;27623;51.966;4.602;2023-06-19T00:05:07;4.55;;;1.33;;
41635;SDS011;27623;51.966;4.602;2023-06-19T00:07:35;3.50;;;0.98;;
41635;SDS011;27623;51.966;4.602;2023-06-19T00:10:02;3.08;;;1.10;;
41635;SDS011;27623;51.966;4.602;2023-06-19T00:12:28;1.73;;;0.90;;
41635;SDS011;27623;51.966;4.602;2023-06-19T00:14:53;1.95;;;1.10;;
41635;SDS011;27623;51.966;4.602;2023-06-19T00:17:19;1.92;;;1.00;;
41635;SDS011;27623;51.966;4.602;2023-06-19T00:19:44;5.70;;;1.00;;
41635;SDS011;27623;51.966;4.602;2023-06-19T00:22:10;2.85;;;0.90;;
41635;SDS011;27623;51.966;4.602;2023-06-19T00:24:35;3.63;;;0.90;;
41635;SDS011;27623;51.966;4.602;2023-06-19T00:27:00;3.05;;;1.30;;
41635;SDS011;27623;51.966;4.602;2023-06-19T00:29:27;5.40;;;1.10;;
41635;SDS011;27623;51.966;4.602;2023-06-19T00:31:53;2.80;;;1.20;;
41635;SDS011;27623;51.966;4.602;2023-06-19T00:34:18;3.88;;;1.40;;
41635;SDS011;27623;51.966;4.602;2023-06-19T00:36:44;3.50;;;1.30;;
41635;SDS011;27623;51.966;4.602;2023-06-19T00:39:10;3.58;;;1.40;;
41635;SDS011;27623;51.966;4.602;2023-06-19T00:41:35;2.55;;;1.40;;
41635;SDS011;27623;51.966;4.602;2023-06-19T00:44:01;2.28;;;1.20;;
41635;SDS011;27623;51.966;4.602;2023-06-19T00:46:27;4.10;;;1.50;;
41635;SDS011;27623;51.966;4.602;2023-06-19T00:48:52;3.65;;;1.58;;
41635;SDS011;27623;51.966;4.602;2023-06-19T00:51:18;7.22;;;1.95;;
41635;SDS011;27623;51.966;4.602;2023-06-19T00:53:43;3.45;;;1.95;;
41635;SDS011;27623;51.966;4.602;2023-06-19T00:56:09;4.40;;;2.30;;
41635;SDS011;27623;51.966;4.602;2023-06-19T00:58:34;4.03;;;2.15;;
41635;SDS011;27623;51.966;4.602;2023-06-19T01:01:02;4.30;;;2.10;;
41635;SDS011;27623;51.966;4.602;2023-06-19T01:03:28;5.15;;;2.50;;
41635;SDS011;27623;51.966;4.602;2023-06-19T01:05:53;4.70;;;2.53;;
41635;SDS011;27623;51.966;4.602;2023-06-19T01:11:04;6.28;;;3.15;;
41635;SDS011;27623;51.966;4.602;2023-06-19T01:13:47;5.10;;;3.00;;
41635;SDS011;27623;51.966;4.602;2023-06-19T01:16:21;5.72;;;3.13;;
41635;SDS011;27623;51.966;4.602;2023-06-19T01:18:47;4.88;;;3.28;;
41635;SDS011;27623;51.966;4.602;2023-06-19T01:21:15;7.63;;;3.80;;
41635;SDS011;27623;51.966;4.602;2023-06-19T01:23:41;5.90;;;3.78;;
41635;SDS011;27623;51.966;4.602;2023-06-19T01:26:07;5.65;;;4.00;;
41635;SDS011;27623;51.966;4.602;2023-06-19T01:28:36;7.70;;;4.82;;
41635;SDS011;27623;51.966;4.602;2023-06-19T01:31:15;6.43;;;4.63;;
41635;SDS011;27623;51.966;4.602;2023-06-19T01:33:46;7.57;;;4.28;;
41635;SDS011;27623;51.966;4.602;2023-06-19T01:36:13;11.55;;;4.72;;
41635;SDS011;27623;51.966;4.602;2023-06-19T01:38:39;7.63;;;4.57;;
41635;SDS011;27623;51.966;4.602;2023-06-19T01:41:06;13.23;;;5.70;;
41635;SDS011;27623;51.966;4.602;2023-06-19T01:43:33;11.00;;;4.70;;
41635;SDS011;27623;51.966;4.602;2023-06-19T01:45:59;7.85;;;4.55;;
41635;SDS011;27623;51.966;4.602;2023-06-19T01:48:25;7.22;;;4.55;;
41635;SDS011;27623;51.966;4.602;2023-06-19T01:50:51;9.13;;;4.65;;
41635;SDS011;27623;51.966;4.602;2023-06-19T01:53:17;11.48;;;4.88;;
41635;SDS011;27623;51.966;4.602;2023-06-19T01:55:42;6.15;;;4.68;;
41635;SDS011;27623;51.966;4.602;2023-06-19T01:58:08;7.10;;;5.10;;
41635;SDS011;27623;51.966;4.602;2023-06-19T02:00:33;7.90;;;5.15;;
41635;SDS011;27623;51.966;4.602;2023-06-19T02:03:02;7.35;;;4.57;;
41635;SDS011;27623;51.966;4.602;2023-06-19T02:05:29;7.72;;;4.15;;
41635;SDS011;27623;51.966;4.602;2023-06-19T02:07:55;8.80;;;4.90;;
41635;SDS011;27623;51.966;4.602;2023-06-19T02:10:21;6.45;;;4.35;;
41635;SDS011;27623;51.966;4.602;2023-06-19T02:12:46;7.00;;;4.82;;
41635;SDS011;27623;51.966;4.602;2023-06-19T02:15:11;8.90;;;4.90;;
41635;SDS011;27623;51.966;4.602;2023-06-19T02:17:37;9.23;;;6.03;;
41635;SDS011;27623;51.966;4.602;2023-06-19T02:20:02;9.20;;;6.35;;
41635;SDS011;27623;51.966;4.602;2023-06-19T02:22:32;12.95;;;7.32;;
41635;SDS011;27623;51.966;4.602;2023-06-19T02:24:58;13.07;;;7.43;;
41635;SDS011;27623;51.966;4.602;2023-06-19T02:27:23;13.27;;;7.80;;
41635;SDS011;27623;51.966;4.602;2023-06-19T02:29:49;15.07;;;9.73;;
41635;SDS011;27623;51.966;4.602;2023-06-19T02:32:14;17.52;;;10.27;;
41635;SDS011;27623;51.966;4.602;2023-06-19T02:34:39;22.73;;;11.80;;
41635;SDS011;27623;51.966;4.602;2023-06-19T02:37:05;23.17;;;12.52;;
41635;SDS011;27623;51.966;4.602;2023-06-19T02:39:30;23.73;;;13.95;;
41635;SDS011;27623;51.966;4.602;2023-06-19T02:41:58;21.58;;;12.27;;
41635;SDS011;27623;51.966;4.602;2023-06-19T02:44:24;20.95;;;13.20;;
41635;SDS011;27623;51.966;4.602;2023-06-19T02:46:52;23.20;;;12.73;;
41635;SDS011;27623;51.966;4.602;2023-06-19T02:49:17;18.58;;;12.10;;
41635;SDS011;27623;51.966;4.602;2023-06-19T02:51:42;20.92;;;12.25;;
41635;SDS011;27623;51.966;4.602;2023-06-19T02:54:08;17.83;;;11.88;;
41635;SDS011;27623;51.966;4.602;2023-06-19T02:56:33;18.88;;;11.48;;
41635;SDS011;27623;51.966;4.602;2023-06-19T02:58:58;18.48;;;11.05;;
41635;SDS011;27623;51.966;4.602;2023-06-19T03:01:24;15.20;;;10.35;;
41635;SDS011;27623;51.966;4.602;2023-06-19T03:03:49;18.90;;;11.05;;
41635;SDS011;27623;51.966;4.602;2023-06-19T03:06:17;18.17;;;10.65;;
41635;SDS011;27623;51.966;4.602;2023-06-19T03:08:43;16.98;;;11.02;;
41635;SDS011;27623;51.966;4.602;2023-06-19T03:11:09;16.08;;;9.02;;
41635;SDS011;27623;51.966;4.602;2023-06-19T03:16:32;16.58;;;9.82;;
41635;SDS011;27623;51.966;4.602;2023-06-19T03:18:57;14.68;;;9.55;;
41635;SDS011;27623;51.966;4.602;2023-06-19T03:21:27;16.20;;;10.77;;
41635;SDS011;27623;51.966;4.602;2023-06-19T03:23:53;15.30;;;10.23;;
41635;SDS011;27623;51.966;4.602;2023-06-19T03:26:18;11.73;;;8.05;;
41635;SDS011;27623;51.966;4.602;2023-06-19T03:28:45;12.63;;;8.35;;
41635;SDS011;27623;51.966;4.602;2023-06-19T03:31:12;13.40;;;8.07;;
41635;SDS011;27623;51.966;4.602;2023-06-19T03:33:38;11.35;;;7.40;;
41635;SDS011;27623;51.966;4.602;2023-06-19T03:36:03;13.88;;;7.55;;
41635;SDS011;27623;51.966;4.602;2023-06-19T03:38:29;11.10;;;6.82;;
41635;SDS011;27623;51.966;4.602;2023-06-19T03:40:54;13.15;;;6.38;;
41635;SDS011;27623;51.966;4.602;2023-06-19T03:43:20;10.65;;;6.78;;
41635;SDS011;27623;51.966;4.602;2023-06-19T03:45:45;10.48;;;6.65;;
41635;SDS011;27623;51.966;4.602;2023-06-19T03:48:11;11.05;;;7.20;;
41635;SDS011;27623;51.966;4.602;2023-06-19T03:50:36;10.82;;;6.32;;
41635;SDS011;27623;51.966;4.602;2023-06-19T03:53:04;11.52;;;6.57;;
41635;SDS011;27623;51.966;4.602;2023-06-19T03:55:29;9.82;;;5.70;;
41635;SDS011;27623;51.966;4.602;2023-06-19T03:57:55;9.68;;;5.32;;
41635;SDS011;27623;51.966;4.602;2023-06-19T04:00:20;10.13;;;5.05;;
41635;SDS011;27623;51.966;4.602;2023-06-19T04:02:46;9.23;;;5.45;;
41635;SDS011;27623;51.966;4.602;2023-06-19T04:05:12;8.25;;;5.35;;
41635;SDS011;27623;51.966;4.602;2023-06-19T04:07:39;8.63;;;5.20;;
41635;SDS011;27623;51.966;4.602;2023-06-19T04:10:04;9.82;;;5.35;;
41635;SDS011;27623;51.966;4.602;2023-06-19T04:12:30;9.98;;;4.75;;
41635;SDS011;27623;51.966;4.602;2023-06-19T04:14:55;7.78;;;4.93;;
41635;SDS011;27623;51.966;4.602;2023-06-19T04:17:21;7.55;;;4.65;;
41635;SDS011;27623;51.966;4.602;2023-06-19T04:19:46;9.70;;;4.47;;
41635;SDS011;27623;51.966;4.602;2023-06-19T04:22:11;9.13;;;5.00;;
41635;SDS011;27623;51.966;4.602;2023-06-19T04:24:37;10.20;;;4.72;;
41635;SDS011;27623;51.966;4.602;2023-06-19T04:27:02;8.00;;;4.20;;
41635;SDS011;27623;51.966;4.602;2023-06-19T04:29:27;6.47;;;4.90;;
41635;SDS011;27623;51.966;4.602;2023-06-19T04:31:58;7.60;;;5.30;;
41635;SDS011;27623;51.966;4.602;2023-06-19T04:34:24;7.10;;;4.82;;
41635;SDS011;27623;51.966;4.602;2023-06-19T04:36:52;8.35;;;4.60;;
41635;SDS011;27623;51.966;4.602;2023-06-19T04:39:23;9.63;;;5.75;;
41635;SDS011;27623;51.966;4.602;2023-06-19T04:41:49;9.68;;;5.80;;
41635;SDS011;27623;51.966;4.602;2023-06-19T04:44:14;13.63;;;5.78;;
41635;SDS011;27623;51.966;4.602;2023-06-19T04:46:40;10.25;;;5.70;;
41635;SDS011;27623;51.966;4.602;2023-06-19T04:49:06;9.05;;;5.68;;
41635;SDS011;27623;51.966;4.602;2023-06-19T04:51:32;10.68;;;5.85;;
41635;SDS011;27623;51.966;4.602;2023-06-19T04:54:01;7.63;;;5.43;;
41635;SDS011;27623;51.966;4.602;2023-06-19T04:56:27;10.93;;;5.32;;
41635;SDS011;27623;51.966;4.602;2023-06-19T04:58:53;10.75;;;5.53;;
41635;SDS011;27623;51.966;4.602;2023-06-19T05:01:22;10.95;;;6.47;;
41635;SDS011;27623;51.966;4.602;2023-06-19T05:03:52;9.00;;;6.07;;
41635;SDS011;27623;51.966;4.602;2023-06-19T05:06:19;9.13;;;5.70;;
41635;SDS011;27623;51.966;4.602;2023-06-19T05:08:45;11.35;;;6.60;;
41635;SDS011;27623;51.966;4.602;2023-06-19T05:11:10;12.10;;;7.45;;
41635;SDS011;27623;51.966;4.602;2023-06-19T05:13:35;13.07;;;6.72;;
41635;SDS011;27623;51.966;4.602;2023-06-19T05:16:01;15.32;;;8.10;;
41635;SDS011;27623;51.966;4.602;2023-06-19T05:18:26;14.13;;;7.50;;
41635;SDS011;27623;51.966;4.602;2023-06-19T05:20:51;18.60;;;9.85;;
41635;SDS011;27623;51.966;4.602;2023-06-19T05:23:17;13.73;;;8.40;;
41635;SDS011;27623;51.966;4.602;2023-06-19T05:25:42;13.68;;;8.48;;
41635;SDS011;27623;51.966;4.602;2023-06-19T05:28:08;15.40;;;8.32;;
41635;SDS011;27623;51.966;4.602;2023-06-19T05:30:34;11.43;;;8.20;;
41635;SDS011;27623;51.966;4.602;2023-06-19T05:33:00;14.50;;;8.05;;
41635;SDS011;27623;51.966;4.602;2023-06-19T05:35:25;16.60;;;9.40;;
41635;SDS011;27623;51.966;4.602;2023-06-19T05:37:51;19.85;;;9.02;;
41635;SDS011;27623;51.966;4.602;2023-06-19T05:40:17;17.60;;;9.25;;
41635;SDS011;27623;51.966;4.602;2023-06-19T05:42:42;16.13;;;9.32;;
41635;SDS011;27623;51.966;4.602;2023-06-19T05:45:08;12.82;;;8.23;;
41635;SDS011;27623;51.966;4.602;2023-06-19T05:47:33;13.55;;;7.97;;
41635;SDS011;27623;51.966;4.602;2023-06-19T05:49:59;16.25;;;8.68;;
41635;SDS011;27623;51.966;4.602;2023-06-19T05:52:25;13.25;;;8.30;;
41635;SDS011;27623;51.966;4.602;2023-06-19T05:54:50;12.15;;;8.00;;
41635;SDS011;27623;51.966;4.602;2023-06-19T05:57:19;12.43;;;8.95;;
41635;SDS011;27623;51.966;4.602;2023-06-19T05:59:49;15.65;;;9.60;;
41635;SDS011;27623;51.966;4.602;2023-06-19T06:02:15;16.70;;;9.48;;
41635;SDS011;27623;51.966;4.602;2023-06-19T06:04:41;14.02;;;8.73;;
41635;SDS011;27623;51.966;4.602;2023-06-19T06:07:07;18.77;;;9.98;;
41635;SDS011;27623;51.966;4.602;2023-06-19T06:09:33;14.95;;;9.77;;
41635;SDS011;27623;51.966;4.602;2023-06-19T06:11:59;24.08;;;11.15;;
41635;SDS011;27623;51.966;4.602;2023-06-19T06:14:25;15.20;;;9.73;;
41635;SDS011;27623;51.966;4.602;2023-06-19T06:16:51;16.67;;;11.00;;
41635;SDS011;27623;51.966;4.602;2023-06-19T06:19:16;15.60;;;9.90;;
41635;SDS011;27623;51.966;4.602;2023-06-19T06:21:42;17.70;;;10.60;;
41635;SDS011;27623;51.966;4.602;2023-06-19T06:24:07;17.13;;;10.63;;
41635;SDS011;27623;51.966;4.602;2023-06-19T06:26:33;16.80;;;9.68;;
41635;SDS011;27623;51.966;4.602;2023-06-19T06:29:02;17.60;;;10.02;;
41635;SDS011;27623;51.966;4.602;2023-06-19T06:31:27;13.57;;;9.30;;
41635;SDS011;27623;51.966;4.602;2023-06-19T06:33:52;17.52;;;9.60;;
41635;SDS011;27623;51.966;4.602;2023-06-19T06:36:18;15.43;;;10.25;;
41635;SDS011;27623;51.966;4.602;2023-06-19T06:38:43;18.30;;;9.50;;
41635;SDS011;27623;51.966;4.602;2023-06-19T06:41:09;16.60;;;8.40;;
41635;SDS011;27623;51.966;4.602;2023-06-19T06:43:34;15.48;;;9.25;;
41635;SDS011;27623;51.966;4.602;2023-06-19T06:46:00;14.98;;;9.18;;
41635;SDS011;27623;51.966;4.602;2023-06-19T06:48:25;17.73;;;9.45;;
41635;SDS011;27623;51.966;4.602;2023-06-19T06:50:51;12.52;;;9.13;;
41635;SDS011;27623;51.966;4.602;2023-06-19T06:53:24;15.55;;;9.32;;
41635;SDS011;27623;51.966;4.602;2023-06-19T06:55:50;13.20;;;8.18;;
41635;SDS011;27623;51.966;4.602;2023-06-19T06:58:16;13.10;;;8.02;;
41635;SDS011;27623;51.966;4.602;2023-06-19T07:00:42;14.65;;;8.05;;
41635;SDS011;27623;51.966;4.602;2023-06-19T07:03:08;13.95;;;7.32;;
41635;SDS011;27623;51.966;4.602;2023-06-19T07:05:33;15.57;;;7.50;;
41635;SDS011;27623;51.966;4.602;2023-06-19T07:07:58;13.98;;;7.28;;
41635;SDS011;27623;51.966;4.602;2023-06-19T07:10:24;11.80;;;7.80;;
41635;SDS011;27623;51.966;4.602;2023-06-19T07:12:49;10.18;;;7.35;;
41635;SDS011;27623;51.966;4.602;2023-06-19T07:15:16;13.95;;;8.75;;
41635;SDS011;27623;51.966;4.602;2023-06-19T07:17:41;16.58;;;7.68;;
41635;SDS011;27623;51.966;4.602;2023-06-19T07:20:08;16.38;;;8.50;;
41635;SDS011;27623;51.966;4.602;2023-06-19T07:22:34;15.93;;;9.00;;
41635;SDS011;27623;51.966;4.602;2023-06-19T07:24:59;16.88;;;8.45;;
41635;SDS011;27623;51.966;4.602;2023-06-19T07:27:25;20.52;;;10.32;;
41635;SDS011;27623;51.966;4.602;2023-06-19T07:29:52;14.43;;;8.45;;
41635;SDS011;27623;51.966;4.602;2023-06-19T07:32:18;18.13;;;9.73;;
41635;SDS011;27623;51.966;4.602;2023-06-19T07:34:43;19.15;;;9.82;;
41635;SDS011;27623;51.966;4.602;2023-06-19T07:37:09;18.58;;;11.23;;
41635;SDS011;27623;51.966;4.602;2023-06-19T07:39:34;28.60;;;16.08;;
41635;SDS011;27623;51.966;4.602;2023-06-19T07:41:59;26.55;;;17.05;;
41635;SDS011;27623;51.966;4.602;2023-06-19T07:44:25;25.88;;;15.82;;
41635;SDS011;27623;51.966;4.602;2023-06-19T07:46:50;26.80;;;15.18;;
41635;SDS011;27623;51.966;4.602;2023-06-19T07:49:15;26.65;;;17.17;;
41635;SDS011;27623;51.966;4.602;2023-06-19T07:51:41;26.80;;;16.13;;
41635;SDS011;27623;51.966;4.602;2023-06-19T07:54:06;28.00;;;17.30;;
41635;SDS011;27623;51.966;4.602;2023-06-19T07:56:32;28.58;;;16.38;;
41635;SDS011;27623;51.966;4.602;2023-06-19T07:58:58;26.13;;;16.20;;
41635;SDS011;27623;51.966;4.602;2023-06-19T08:01:24;27.52;;;16.15;;
41635;SDS011;27623;51.966;4.602;2023-06-19T08:03:49;27.35;;;15.77;;
41635;SDS011;27623;51.966;4.602;2023-06-19T08:06:14;27.92;;;17.08;;
41635;SDS011;27623;51.966;4.602;2023-06-19T08:08:40;27.50;;;15.18;;
41635;SDS011;27623;51.966;4.602;2023-06-19T08:11:05;24.92;;;15.30;;
41635;SDS011;27623;51.966;4.602;2023-06-19T08:13:30;31.13;;;16.23;;
41635;SDS011;27623;51.966;4.602;2023-06-19T08:15:56;19.92;;;13.48;;
41635;SDS011;27623;51.966;4.602;2023-06-19T08:18:21;24.08;;;12.95;;
41635;SDS011;27623;51.966;4.602;2023-06-19T08:20:46;20.83;;;11.32;;
41635;SDS011;27623;51.966;4.602;2023-06-19T08:23:12;20.10;;;10.52;;
41635;SDS011;27623;51.966;4.602;2023-06-19T08:25:37;15.55;;;9.52;;
41635;SDS011;27623;51.966;4.602;2023-06-19T08:28:03;16.58;;;10.35;;
41635;SDS011;27623;51.966;4.602;2023-06-19T08:30:28;18.90;;;10.85;;
41635;SDS011;27623;51.966;4.602;2023-06-19T08:32:54;21.65;;;12.43;;
41635;SDS011;27623;51.966;4.602;2023-06-19T08:35:21;27.38;;;14.15;;
41635;SDS011;27623;51.966;4.602;2023-06-19T08:37:47;25.73;;;14.15;;
41635;SDS011;27623;51.966;4.602;2023-06-19T08:40:13;25.05;;;17.00;;
41635;SDS011;27623;51.966;4.602;2023-06-19T08:42:40;26.92;;;15.52;;
41635;SDS011;27623;51.966;4.602;2023-06-19T08:45:08;26.98;;;14.43;;
41635;SDS011;27623;51.966;4.602;2023-06-19T08:47:34;28.30;;;16.13;;
41635;SDS011;27623;51.966;4.602;2023-06-19T08:50:00;26.45;;;16.63;;
41635;SDS011;27623;51.966;4.602;2023-06-19T08:52:25;27.20;;;15.35;;
41635;SDS011;27623;51.966;4.602;2023-06-19T08:54:51;28.70;;;16.25;;
41635;SDS011;27623;51.966;4.602;2023-06-19T08:57:17;25.13;;;16.73;;
41635;SDS011;27623;51.966;4.602;2023-06-19T08:59:49;24.65;;;16.08;;
41635;SDS011;27623;51.966;4.602;2023-06-19T09:02:15;23.58;;;14.68;;
41635;SDS011;27623;51.966;4.602;2023-06-19T09:04:41;24.27;;;14.88;;
41635;SDS011;27623;51.966;4.602;2023-06-19T09:07:07;20.48;;;13.02;;
41635;SDS011;27623;51.966;4.602;2023-06-19T09:09:35;26.02;;;15.02;;
41635;SDS011;27623;51.966;4.602;2023-06-19T09:12:04;25.90;;;15.35;;
41635;SDS011;27623;51.966;4.602;2023-06-19T09:14:35;26.35;;;14.85;;
41635;SDS011;27623;51.966;4.602;2023-06-19T09:17:01;24.02;;;14.23;;
41635;SDS011;27623;51.966;4.602;2023-06-19T09:19:32;25.15;;;14.60;;
41635;SDS011;27623;51.966;4.602;2023-06-19T09:22:06;28.27;;;15.32;;
41635;SDS011;27623;51.966;4.602;2023-06-19T09:24:36;22.73;;;14.18;;
41635;SDS011;27623;51.966;4.602;2023-06-19T09:29:37;27.83;;;18.08;;
41635;SDS011;27623;51.966;4.602;2023-06-19T09:32:25;26.83;;;17.40;;
41635;SDS011;27623;51.966;4.602;2023-06-19T09:34:51;25.70;;;15.80;;
41635;SDS011;27623;51.966;4.602;2023-06-19T09:37:39;28.63;;;17.95;;
41635;SDS011;27623;51.966;4.602;2023-06-19T09:40:04;26.77;;;16.58;;
41635;SDS011;27623;51.966;4.602;2023-06-19T09:42:39;25.13;;;15.75;;
41635;SDS011;27623;51.966;4.602;2023-06-19T09:45:07;32.15;;;16.67;;
41635;SDS011;27623;51.966;4.602;2023-06-19T09:50:04;25.50;;;16.10;;
41635;SDS011;27623;51.966;4.602;2023-06-19T09:52:31;29.63;;;16.27;;
41635;SDS011;27623;51.966;4.602;2023-06-19T09:54:58;27.55;;;15.43;;
41635;SDS011;27623;51.966;4.602;2023-06-19T09:57:27;25.25;;;15.30;;
41635;SDS011;27623;51.966;4.602;2023-06-19T09:59:55;24.55;;;14.23;;
41635;SDS011;27623;51.966;4.602;2023-06-19T10:02:22;24.88;;;14.55;;
41635;SDS011;27623;51.966;4.602;2023-06-19T10:04:49;21.10;;;13.48;;
41635;SDS011;27623;51.966;4.602;2023-06-19T10:07:24;21.48;;;14.05;;
41635;SDS011;27623;51.966;4.602;2023-06-19T10:12:46;25.67;;;12.65;;
41635;SDS011;27623;51.966;4.602;2023-06-19T10:15:21;18.15;;;12.27;;
41635;SDS011;27623;51.966;4.602;2023-06-19T10:18:01;19.25;;;12.32;;
41635;SDS011;27623;51.966;4.602;2023-06-19T10:20:29;22.08;;;12.57;;
41635;SDS011;27623;51.966;4.602;2023-06-19T10:25:32;20.13;;;13.25;;
41635;SDS011;27623;51.966;4.602;2023-06-19T10:28:02;19.70;;;11.00;;
41635;SDS011;27623;51.966;4.602;2023-06-19T10:30:31;17.45;;;10.55;;
41635;SDS011;27623;51.966;4.602;2023-06-19T10:32:59;17.10;;;12.20;;
41635;SDS011;27623;51.966;4.602;2023-06-19T10:35:25;21.75;;;11.43;;
41635;SDS011;27623;51.966;4.602;2023-06-19T10:37:50;17.55;;;12.15;;
41635;SDS011;27623;51.966;4.602;2023-06-19T10:40:16;15.05;;;11.15;;
41635;SDS011;27623;51.966;4.602;2023-06-19T10:42:42;15.27;;;11.20;;
41635;SDS011;27623;51.966;4.602;2023-06-19T10:45:12;19.30;;;12.32;;
41635;SDS011;27623;51.966;4.602;2023-06-19T10:47:41;16.35;;;11.80;;
41635;SDS011;27623;51.966;4.602;2023-06-19T10:50:10;21.02;;;12.15;;
41635;SDS011;27623;51.966;4.602;2023-06-19T10:52:38;22.58;;;13.25;;
41635;SDS011;27623;51.966;4.602;2023-06-19T10:55:05;20.20;;;12.07;;
41635;SDS011;27623;51.966;4.602;2023-06-19T10:57:31;18.73;;;12.20;;
41635;SDS011;27623;51.966;4.602;2023-06-19T10:59:57;18.05;;;11.80;;
41635;SDS011;27623;51.966;4.602;2023-06-19T11:02:23;23.13;;;12.18;;
41635;SDS011;27623;51.966;4.602;2023-06-19T11:04:53;16.42;;;11.23;;
41635;SDS011;27623;51.966;4.602;2023-06-19T11:07:19;19.05;;;12.23;;
41635;SDS011;27623;51.966;4.602;2023-06-19T11:09:47;22.33;;;12.65;;
41635;SDS011;27623;51.966;4.602;2023-06-19T11:12:18;18.25;;;11.65;;
41635;SDS011;27623;51.966;4.602;2023-06-19T11:14:44;14.45;;;10.05;;
41635;SDS011;27623;51.966;4.602;2023-06-19T11:17:10;13.73;;;9.60;;
41635;SDS011;27623;51.966;4.602;2023-06-19T11:19:35;17.65;;;10.75;;
41635;SDS011;27623;51.966;4.602;2023-06-19T11:22:03;16.88;;;10.43;;
41635;SDS011;27623;51.966;4.602;2023-06-19T11:24:28;13.80;;;9.43;;
41635;SDS011;27623;51.966;4.602;2023-06-19T11:26:55;15.43;;;9.48;;
41635;SDS011;27623;51.966;4.602;2023-06-19T11:29:28;14.85;;;10.43;;
41635;SDS011;27623;51.966;4.602;2023-06-19T11:32:04;15.82;;;10.15;;
41635;SDS011;27623;51.966;4.602;2023-06-19T11:34:35;17.63;;;10.10;;
41635;SDS011;27623;51.966;4.602;2023-06-19T11:37:17;17.17;;;10.77;;
41635;SDS011;27623;51.966;4.602;2023-06-19T11:39:43;13.88;;;10.25;;
41635;SDS011;27623;51.966;4.602;2023-06-19T11:42:09;14.68;;;10.75;;
41635;SDS011;27623;51.966;4.602;2023-06-19T11:44:35;16.77;;;10.55;;
41635;SDS011;27623;51.966;4.602;2023-06-19T11:47:00;13.80;;;10.07;;
41635;SDS011;27623;51.966;4.602;2023-06-19T11:49:27;17.23;;;11.02;;
41635;SDS011;27623;51.966;4.602;2023-06-19T11:51:57;17.45;;;10.70;;
41635;SDS011;27623;51.966;4.602;2023-06-19T11:54:22;14.75;;;10.32;;
41635;SDS011;27623;51.966;4.602;2023-06-19T11:56:48;17.85;;;10.02;;
41635;SDS011;27623;51.966;4.602;2023-06-19T11:59:13;12.65;;;8.18;;
41635;SDS011;27623;51.966;4.602;2023-06-19T12:01:39;15.02;;;11.68;;
41635;SDS011;27623;51.966;4.602;2023-06-19T12:04:05;13.35;;;10.07;;
41635;SDS011;27623;51.966;4.602;2023-06-19T12:06:33;15.45;;;9.90;;
41635;SDS011;27623;51.966;4.602;2023-06-19T12:09:00;15.80;;;10.50;;
41635;SDS011;27623;51.966;4.602;2023-06-19T12:11:25;13.70;;;10.30;;
41635;SDS011;27623;51.966;4.602;2023-06-19T12:13:51;15.65;;;12.52;;
41635;SDS011;27623;51.966;4.602;2023-06-19T12:16:18;12.70;;;9.32;;
41635;SDS011;27623;51.966;4.602;2023-06-19T12:18:43;13.02;;;9.73;;
41635;SDS011;27623;51.966;4.602;2023-06-19T12:21:09;12.30;;;9.38;;
41635;SDS011;27623;51.966;4.602;2023-06-19T12:23:34;11.65;;;8.50;;
41635;SDS011;27623;51.966;4.602;2023-06-19T12:26:00;11.73;;;8.20;;
41635;SDS011;27623;51.966;4.602;2023-06-19T12:28:25;16.10;;;8.43;;
41635;SDS011;27623;51.966;4.602;2023-06-19T12:30:51;14.95;;;8.40;;
41635;SDS011;27623;51.966;4.602;2023-06-19T12:33:18;13.73;;;8.25;;
41635;SDS011;27623;51.966;4.602;2023-06-19T12:35:45;11.30;;;7.50;;
41635;SDS011;27623;51.966;4.602;2023-06-19T12:38:11;9.98;;;6.57;;
41635;SDS011;27623;51.966;4.602;2023-06-19T12:40:37;11.40;;;7.68;;
41635;SDS011;27623;51.966;4.602;2023-06-19T12:43:03;12.60;;;7.28;;
41635;SDS011;27623;51.966;4.602;2023-06-19T12:45:29;12.25;;;7.25;;
41635;SDS011;27623;51.966;4.602;2023-06-19T12:47:55;12.82;;;7.20;;
41635;SDS011;27623;51.966;4.602;2023-06-19T12:50:20;9.93;;;7.55;;
41635;SDS011;27623;51.966;4.602;2023-06-19T12:52:45;9.93;;;7.25;;
41635;SDS011;27623;51.966;4.602;2023-06-19T12:55:11;13.82;;;7.15;;
41635;SDS011;27623;51.966;4.602;2023-06-19T12:57:36;13.93;;;7.18;;
41635;SDS011;27623;51.966;4.602;2023-06-19T13:00:02;11.95;;;6.50;;
41635;SDS011;27623;51.966;4.602;2023-06-19T13:02:31;9.93;;;6.78;;
41635;SDS011;27623;51.966;4.602;2023-06-19T13:04:57;12.93;;;7.07;;
41635;SDS011;27623;51.966;4.602;2023-06-19T13:07:23;10.10;;;6.78;;
41635;SDS011;27623;51.966;4.602;2023-06-19T13:09:48;12.80;;;6.57;;
41635;SDS011;27623;51.966;4.602;2023-06-19T13:12:16;10.10;;;5.35;;
41635;SDS011;27623;51.966;4.602;2023-06-19T13:14:41;10.52;;;6.57;;
41635;SDS011;27623;51.966;4.602;2023-06-19T13:17:09;9.27;;;5.95;;
41635;SDS011;27623;51.966;4.602;2023-06-19T13:19:34;9.93;;;6.30;;
41635;SDS011;27623;51.966;4.602;2023-06-19T13:22:00;9.80;;;6.43;;
41635;SDS011;27623;51.966;4.602;2023-06-19T13:24:25;16.15;;;6.65;;
41635;SDS011;27623;51.966;4.602;2023-06-19T13:26:54;6.53;;;4.22;;
41635;SDS011;27623;51.966;4.602;2023-06-19T13:29:20;8.32;;;5.45;;
41635;SDS011;27623;51.966;4.602;2023-06-19T13:31:45;8.70;;;4.75;;
41635;SDS011;27623;51.966;4.602;2023-06-19T13:34:11;10.93;;;6.40;;
41635;SDS011;27623;51.966;4.602;2023-06-19T13:36:36;13.00;;;5.65;;
41635;SDS011;27623;51.966;4.602;2023-06-19T13:39:02;8.88;;;5.80;;
41635;SDS011;27623;51.966;4.602;2023-06-19T13:41:29;9.32;;;5.80;;
41635;SDS011;27623;51.966;4.602;2023-06-19T13:43:57;9.20;;;4.97;;
41635;SDS011;27623;51.966;4.602;2023-06-19T13:46:23;14.45;;;5.03;;
41635;SDS011;27623;51.966;4.602;2023-06-19T13:48:48;7.80;;;4.68;;
41635;SDS011;27623;51.966;4.602;2023-06-19T13:51:19;9.85;;;5.88;;
41635;SDS011;27623;51.966;4.602;2023-06-19T13:53:45;11.10;;;6.68;;
41635;SDS011;27623;51.966;4.602;2023-06-19T13:56:11;9.32;;;5.22;;
41635;SDS011;27623;51.966;4.602;2023-06-19T13:58:37;7.60;;;5.10;;
41635;SDS011;27623;51.966;4.602;2023-06-19T14:01:03;8.93;;;4.57;;
41635;SDS011;27623;51.966;4.602;2023-06-19T14:03:29;9.32;;;5.15;;
41635;SDS011;27623;51.966;4.602;2023-06-19T14:05:54;11.85;;;5.43;;
41635;SDS011;27623;51.966;4.602;2023-06-19T14:08:20;11.45;;;4.95;;
41635;SDS011;27623;51.966;4.602;2023-06-19T14:10:45;9.00;;;4.82;;
41635;SDS011;27623;51.966;4.602;2023-06-19T14:13:11;7.07;;;4.85;;
41635;SDS011;27623;51.966;4.602;2023-06-19T14:15:36;8.52;;;4.90;;
41635;SDS011;27623;51.966;4.602;2023-06-19T14:18:04;9.30;;;4.85;;
41635;SDS011;27623;51.966;4.602;2023-06-19T14:20:29;8.75;;;4.93;;
41635;SDS011;27623;51.966;4.602;2023-06-19T14:22:55;7.40;;;4.30;;
41635;SDS011;27623;51.966;4.602;2023-06-19T14:25:20;8.35;;;4.85;;
41635;SDS011;27623;51.966;4.602;2023-06-19T14:27:46;8.35;;;4.45;;
41635;SDS011;27623;51.966;4.602;2023-06-19T14:30:11;8.35;;;5.03;;
41635;SDS011;27623;51.966;4.602;2023-06-19T14:32:39;8.75;;;4.53;;
41635;SDS011;27623;51.966;4.602;2023-06-19T14:35:04;9.45;;;5.55;;
41635;SDS011;27623;51.966;4.602;2023-06-19T14:37:30;8.45;;;4.38;;
41635;SDS011;27623;51.966;4.602;2023-06-19T14:39:56;7.22;;;4.75;;
41635;SDS011;27623;51.966;4.602;2023-06-19T14:42:21;9.13;;;4.80;;
41635;SDS011;27623;51.966;4.602;2023-06-19T14:44:47;9.93;;;5.22;;